sensor_id;sensor_type;location;lat;lon;timestamp;pressure;altitude;pressure_sealevel;temperature;humidity
38022;BME280;23832;43.216;27.946;2023-01-05T00:00:07;101770.31;;;13.15;100.00
38022;BME280;23832;43.216;27.946;2023-01-05T00:02:09;101771.31;;;13.14;100.00
38022;BME280;23832;43.216;27.946;2023-01-05T00:04:14;101761.84;;;13.11;100.00
38022;BME280;23832;43.216;27.946;2023-01-05T00:06:15;101757.72;;;13.08;100.00
38022;BME280;23832;43.216;27.946;2023-01-05T00:08:18;101758.88;;;13.06;100.00
38022;BME280;23832;43.216;27.946;2023-01-05T00:10:19;101752.22;;;13.02;100.00
38022;BME280;23832;43.216;27.946;2023-01-05T00:12:36;101756.19;;;12.98;100.00
38022;BME280;23832;43.216;27.946;2023-01-05T00:14:55;101754.84;;;12.94;100.00
38022;BME280;23832;43.216;27.946;2023-01-05T00:17:21;101756.19;;;12.90;100.00
38022;BME280;23832;43.216;27.946;2023-01-05T00:19:40;101755.69;;;12.86;100.00
38022;BME280;23832;43.216;27.946;2023-01-05T00:21:59;101755.16;;;12.83;100.00
38022;BME280;23832;43.216;27.946;2023-01-05T00:24:18;101762.59;;;12.79;100.00
38022;BME280;23832;43.216;27.946;2023-01-05T00:26:19;101758.47;;;12.76;100.00
38022;BME280;23832;43.216;27.946;2023-01-05T00:28:23;101747.34;;;12.73;100.00
38022;BME280;23832;43.216;27.946;2023-01-05T00:30:26;101751.31;;;12.69;100.00
38022;BME280;23832;43.216;27.946;2023-01-05T00:32:28;101747.00;;;12.68;100.00
38022;BME280;23832;43.216;27.946;2023-01-05T00:34:30;101750.78;;;12.65;100.00
38022;BME280;23832;43.216;27.946;2023-01-05T00:36:32;101744.66;;;12.65;100.00
38022;BME280;23832;43.216;27.946;2023-01-05T00:38:33;101746.81;;;12.61;100.00
38022;BME280;23832;43.216;27.946;2023-01-05T00:40:36;101739.88;;;12.60;100.00
38022;BME280;23832;43.216;27.946;2023-01-05T00:42:38;101747.97;;;12.59;100.00
38022;BME280;23832;43.216;27.946;2023-01-05T00:44:41;101747.97;;;12.59;100.00
38022;BME280;23832;43.216;27.946;2023-01-05T00:46:42;101735.69;;;12.58;100.00
38022;BME280;23832;43.216;27.946;2023-01-05T00:48:44;101741.97;;;12.57;100.00
38022;BME280;23832;43.216;27.946;2023-01-05T00:50:47;101741.16;;;12.56;100.00
38022;BME280;23832;43.216;27.946;2023-01-05T00:52:49;101735.69;;;12.58;100.00
38022;BME280;23832;43.216;27.946;2023-01-05T00:54:51;101733.06;;;12.58;100.00
38022;BME280;23832;43.216;27.946;2023-01-05T00:56:53;101731.41;;;12.57;100.00
38022;BME280;23832;43.216;27.946;2023-01-05T00:58:54;101726.94;;;12.57;100.00
38022;BME280;23832;43.216;27.946;2023-01-05T01:00:58;101728.63;;;12.58;100.00
38022;BME280;23832;43.216;27.946;2023-01-05T01:03:00;101725.13;;;12.58;100.00
38022;BME280;23832;43.216;27.946;2023-01-05T01:05:03;101726.81;;;12.59;100.00
38022;BME280;23832;43.216;27.946;2023-01-05T01:07:05;101714.53;;;12.58;100.00
38022;BME280;23832;43.216;27.946;2023-01-05T01:09:07;101714.53;;;12.58;100.00
38022;BME280;23832;43.216;27.946;2023-01-05T01:11:09;101710.25;;;12.57;100.00
38022;BME280;23832;43.216;27.946;2023-01-05T01:13:10;101707.59;;;12.57;100.00
38022;BME280;23832;43.216;27.946;2023-01-05T01:15:12;101706.78;;;12.56;100.00
38022;BME280;23832;43.216;27.946;2023-01-05T01:17:17;101699.66;;;12.57;100.00
38022;BME280;23832;43.216;27.946;2023-01-05T01:19:19;101691.06;;;12.55;100.00
38022;BME280;23832;43.216;27.946;2023-01-05T01:21:21;101695.53;;;12.54;100.00
38022;BME280;23832;43.216;27.946;2023-01-05T01:23:23;101697.34;;;12.54;100.00
38022;BME280;23832;43.216;27.946;2023-01-05T01:25:24;101688.59;;;12.53;100.00
38022;BME280;23832;43.216;27.946;2023-01-05T01:27:28;101682.47;;;12.53;100.00
38022;BME280;23832;43.216;27.946;2023-01-05T01:29:33;101679.81;;;12.53;100.00
38022;BME280;23832;43.216;27.946;2023-01-05T01:31:35;101678.84;;;12.54;100.00
38022;BME280;23832;43.216;27.946;2023-01-05T01:33:38;101668.25;;;12.54;100.00
38022;BME280;23832;43.216;27.946;2023-01-05T01:35:40;101667.41;;;12.53;100.00
38022;BME280;23832;43.216;27.946;2023-01-05T01:37:43;101663.78;;;12.54;100.00
38022;BME280;23832;43.216;27.946;2023-01-05T01:39:44;101665.59;;;12.54;100.00
38022;BME280;23832;43.216;27.946;2023-01-05T01:41:46;101661.31;;;12.53;100.00
38022;BME280;23832;43.216;27.946;2023-01-05T01:43:49;101667.59;;;12.52;100.00
38022;BME280;23832;43.216;27.946;2023-01-05T01:45:50;101658.00;;;12.50;100.00
38022;BME280;23832;43.216;27.946;2023-01-05T01:47:53;101658.81;;;12.51;100.00
38022;BME280;23832;43.216;27.946;2023-01-05T01:49:58;101657.00;;;12.52;100.00
38022;BME280;23832;43.216;27.946;2023-01-05T01:52:01;101653.53;;;12.51;100.00
38022;BME280;23832;43.216;27.946;2023-01-05T01:54:03;101648.06;;;12.53;100.00
38022;BME280;23832;43.216;27.946;2023-01-05T01:56:06;101645.44;;;12.53;100.00
38022;BME280;23832;43.216;27.946;2023-01-05T01:58:10;101645.28;;;12.54;100.00
38022;BME280;23832;43.216;27.946;2023-01-05T02:00:14;101640.81;;;12.55;100.00
38022;BME280;23832;43.216;27.946;2023-01-05T02:02:16;101634.53;;;12.56;100.00
38022;BME280;23832;43.216;27.946;2023-01-05T02:04:19;101638.00;;;12.56;100.00
38022;BME280;23832;43.216;27.946;2023-01-05T02:06:22;101636.19;;;12.57;100.00
38022;BME280;23832;43.216;27.946;2023-01-05T02:08:23;101632.53;;;12.58;100.00
38022;BME280;23832;43.216;27.946;2023-01-05T02:10:35;101633.41;;;12.58;100.00
38022;BME280;23832;43.216;27.946;2023-01-05T02:12:43;101632.53;;;12.58;100.00
38022;BME280;23832;43.216;27.946;2023-01-05T02:14:48;101626.41;;;12.57;100.00
38022;BME280;23832;43.216;27.946;2023-01-05T02:16:57;101622.94;;;12.57;100.00
38022;BME280;23832;43.216;27.946;2023-01-05T02:19:11;101617.66;;;12.57;100.00
38022;BME280;23832;43.216;27.946;2023-01-05T02:21:26;101610.72;;;12.56;100.00
38022;BME280;23832;43.216;27.946;2023-01-05T02:26:03;101598.47;;;12.55;100.00
38022;BME280;23832;43.216;27.946;2023-01-05T02:28:13;101601.13;;;12.55;100.00
38022;BME280;23832;43.216;27.946;2023-01-05T02:32:41;101597.66;;;12.54;100.00
38022;BME280;23832;43.216;27.946;2023-01-05T02:34:46;101599.47;;;12.54;100.00
38022;BME280;23832;43.216;27.946;2023-01-05T02:36:52;101587.06;;;12.54;100.00
38022;BME280;23832;43.216;27.946;2023-01-05T02:38:57;101590.56;;;12.55;100.00
38022;BME280;23832;43.216;27.946;2023-01-05T02:41:03;101578.31;;;12.54;100.00
38022;BME280;23832;43.216;27.946;2023-01-05T02:43:08;101580.13;;;12.53;100.00
38022;BME280;23832;43.216;27.946;2023-01-05T02:45:10;101579.13;;;12.54;100.00
38022;BME280;23832;43.216;27.946;2023-01-05T02:49:30;101580.78;;;12.55;100.00
38022;BME280;23832;43.216;27.946;2023-01-05T02:51:34;101575.50;;;12.55;100.00
38022;BME280;23832;43.216;27.946;2023-01-05T02:53:37;101565.91;;;12.54;100.00
38022;BME280;23832;43.216;27.946;2023-01-05T02:55:40;101569.38;;;12.55;100.00
38022;BME280;23832;43.216;27.946;2023-01-05T02:57:46;101560.63;;;12.54;100.00
38022;BME280;23832;43.216;27.946;2023-01-05T02:59:50;101558.97;;;12.53;100.00
38022;BME280;23832;43.216;27.946;2023-01-05T03:01:55;101558.16;;;12.53;100.00
38022;BME280;23832;43.216;27.946;2023-01-05T03:03:59;101558.81;;;12.55;100.00
38022;BME280;23832;43.216;27.946;2023-01-05T03:06:05;101557.97;;;12.54;100.00
38022;BME280;23832;43.216;27.946;2023-01-05T03:08:08;101564.09;;;12.55;100.00
38022;BME280;23832;43.216;27.946;2023-01-05T03:10:21;101555.16;;;12.56;100.00
38022;BME280;23832;43.216;27.946;2023-01-05T03:12:40;101552.53;;;12.56;100.00
38022;BME280;23832;43.216;27.946;2023-01-05T03:15:00;101547.22;;;12.56;100.00
38022;BME280;23832;43.216;27.946;2023-01-05T03:17:04;101545.59;;;12.55;100.00
38022;BME280;23832;43.216;27.946;2023-01-05T03:19:10;101544.59;;;12.56;100.00
38022;BME280;23832;43.216;27.946;2023-01-05T03:21:31;101537.66;;;12.55;100.00
38022;BME280;23832;43.216;27.946;2023-01-05T03:23:50;101529.72;;;12.55;100.00
38022;BME280;23832;43.216;27.946;2023-01-05T03:26:09;101530.72;;;12.54;100.00
38022;BME280;23832;43.216;27.946;2023-01-05T03:28:31;101529.06;;;12.53;100.00
38022;BME280;23832;43.216;27.946;2023-01-05T03:30:55;101520.47;;;12.50;100.00
38022;BME280;23832;43.216;27.946;2023-01-05T03:33:17;101517.00;;;12.50;100.00
38022;BME280;23832;43.216;27.946;2023-01-05T03:35:38;101523.25;;;12.49;100.00
38022;BME280;23832;43.216;27.946;2023-01-05T03:37:44;101517.13;;;12.48;100.00
38022;BME280;23832;43.216;27.946;2023-01-05T03:39:48;101518.13;;;12.47;100.00
38022;BME280;23832;43.216;27.946;2023-01-05T03:41:50;101513.00;;;12.46;100.00
38022;BME280;23832;43.216;27.946;2023-01-05T03:43:51;101514.16;;;12.43;100.00
38022;BME280;23832;43.216;27.946;2023-01-05T03:45:54;101507.41;;;12.41;100.00
38022;BME280;23832;43.216;27.946;2023-01-05T03:47:56;101512.81;;;12.39;100.00
38022;BME280;23832;43.216;27.946;2023-01-05T03:49:57;101509.69;;;12.36;100.00
38022;BME280;23832;43.216;27.946;2023-01-05T03:51:59;101511.69;;;12.34;100.00
38022;BME280;23832;43.216;27.946;2023-01-05T03:54:02;101509.34;;;12.31;100.00
38022;BME280;23832;43.216;27.946;2023-01-05T03:56:04;101505.22;;;12.28;100.00
38022;BME280;23832;43.216;27.946;2023-01-05T03:58:06;101504.56;;;12.26;100.00
38022;BME280;23832;43.216;27.946;2023-01-05T04:00:08;101501.56;;;12.21;100.00
38022;BME280;23832;43.216;27.946;2023-01-05T04:02:10;101499.25;;;12.18;100.00
38022;BME280;23832;43.216;27.946;2023-01-05T04:04:12;101497.75;;;12.15;100.00
38022;BME280;23832;43.216;27.946;2023-01-05T04:06:14;101499.88;;;12.12;100.00
38022;BME280;23832;43.216;27.946;2023-01-05T04:08:15;101489.66;;;12.09;100.00
38022;BME280;23832;43.216;27.946;2023-01-05T04:10:19;101498.72;;;12.06;100.00
38022;BME280;23832;43.216;27.946;2023-01-05T04:12:21;101498.06;;;12.04;100.00
38022;BME280;23832;43.216;27.946;2023-01-05T04:14:22;101499.19;;;12.02;100.00
38022;BME280;23832;43.216;27.946;2023-01-05T04:16:24;101495.06;;;11.99;100.00
38022;BME280;23832;43.216;27.946;2023-01-05T04:18:27;101494.25;;;11.99;100.00
38022;BME280;23832;43.216;27.946;2023-01-05T04:20:29;101496.22;;;11.97;100.00
38022;BME280;23832;43.216;27.946;2023-01-05T04:22:30;101492.75;;;11.96;100.00
38022;BME280;23832;43.216;27.946;2023-01-05T04:24:32;101495.53;;;11.94;100.00
38022;BME280;23832;43.216;27.946;2023-01-05T04:26:35;101498.19;;;11.94;100.00
38022;BME280;23832;43.216;27.946;2023-01-05T04:28:38;101491.25;;;11.93;100.00
38022;BME280;23832;43.216;27.946;2023-01-05T04:30:41;101493.88;;;11.93;100.00
38022;BME280;23832;43.216;27.946;2023-01-05T04:32:43;101494.22;;;11.90;100.00
38022;BME280;23832;43.216;27.946;2023-01-05T04:34:44;101496.03;;;11.90;100.00
38022;BME280;23832;43.216;27.946;2023-01-05T04:36:46;101496.03;;;11.90;100.00
38022;BME280;23832;43.216;27.946;2023-01-05T04:38:48;101496.03;;;11.90;100.00
38022;BME280;23832;43.216;27.946;2023-01-05T04:40:52;101504.78;;;11.90;100.00
38022;BME280;23832;43.216;27.946;2023-01-05T04:42:55;101504.78;;;11.90;100.00
38022;BME280;23832;43.216;27.946;2023-01-05T04:44:57;101490.59;;;11.91;100.00
38022;BME280;23832;43.216;27.946;2023-01-05T04:46:58;101498.19;;;11.94;100.00
38022;BME280;23832;43.216;27.946;2023-01-05T04:49:00;101498.88;;;11.97;100.00
38022;BME280;23832;43.216;27.946;2023-01-05T04:51:02;101490.63;;;12.00;100.00
38022;BME280;23832;43.216;27.946;2023-01-05T04:53:03;101496.41;;;12.03;100.00
38022;BME280;23832;43.216;27.946;2023-01-05T04:55:05;101495.25;;;12.06;100.00
38022;BME280;23832;43.216;27.946;2023-01-05T04:57:07;101488.00;;;12.08;100.00
38022;BME280;23832;43.216;27.946;2023-01-05T04:59:10;101486.00;;;12.10;100.00
38022;BME280;23832;43.216;27.946;2023-01-05T05:01:12;101478.75;;;12.12;100.00
38022;BME280;23832;43.216;27.946;2023-01-05T05:03:14;101477.75;;;12.13;100.00
38022;BME280;23832;43.216;27.946;2023-01-05T05:05:16;101477.63;;;12.14;100.00
38022;BME280;23832;43.216;27.946;2023-01-05T05:07:17;101476.63;;;12.15;100.00
38022;BME280;23832;43.216;27.946;2023-01-05T05:09:19;101471.00;;;12.18;100.00
38022;BME280;23832;43.216;27.946;2023-01-05T05:11:20;101477.75;;;12.21;100.00
38022;BME280;23832;43.216;27.946;2023-01-05T05:13:22;101468.69;;;12.24;100.00
38022;BME280;23832;43.216;27.946;2023-01-05T05:15:25;101464.25;;;12.24;100.00
38022;BME280;23832;43.216;27.946;2023-01-05T05:17:27;101461.44;;;12.26;100.00
38022;BME280;23832;43.216;27.946;2023-01-05T05:19:28;101445.41;;;12.27;100.00
38022;BME280;23832;43.216;27.946;2023-01-05T05:21:30;101445.41;;;12.27;100.00
38022;BME280;23832;43.216;27.946;2023-01-05T05:23:32;101441.09;;;12.26;100.00
38022;BME280;23832;43.216;27.946;2023-01-05T05:25:34;101436.63;;;12.27;100.00
38022;BME280;23832;43.216;27.946;2023-01-05T05:27:35;101444.56;;;12.27;100.00
38022;BME280;23832;43.216;27.946;2023-01-05T05:29:37;101442.91;;;12.26;100.00
38022;BME280;23832;43.216;27.946;2023-01-05T05:31:41;101441.94;;;12.27;100.00
38022;BME280;23832;43.216;27.946;2023-01-05T05:33:43;101444.56;;;12.27;100.00
38022;BME280;23832;43.216;27.946;2023-01-05T05:35:46;101442.75;;;12.27;100.00
38022;BME280;23832;43.216;27.946;2023-01-05T05:37:49;101440.94;;;12.28;100.00
38022;BME280;23832;43.216;27.946;2023-01-05T05:39:50;101438.94;;;12.30;100.00
38022;BME280;23832;43.216;27.946;2023-01-05T05:41:52;101430.00;;;12.31;100.00
38022;BME280;23832;43.216;27.946;2023-01-05T05:43:53;101436.81;;;12.33;100.00
38022;BME280;23832;43.216;27.946;2023-01-05T05:45:59;101436.66;;;12.35;100.00
38022;BME280;23832;43.216;27.946;2023-01-05T05:48:02;101437.47;;;12.35;100.00
38022;BME280;23832;43.216;27.946;2023-01-05T05:50:05;101439.13;;;12.36;100.00
38022;BME280;23832;43.216;27.946;2023-01-05T05:52:07;101430.19;;;12.37;100.00
38022;BME280;23832;43.216;27.946;2023-01-05T05:54:09;101424.09;;;12.37;100.00
38022;BME280;23832;43.216;27.946;2023-01-05T05:56:11;101417.63;;;12.39;100.00
38022;BME280;23832;43.216;27.946;2023-01-05T05:58:12;101416.66;;;12.40;100.00
38022;BME280;23832;43.216;27.946;2023-01-05T06:00:14;101418.97;;;12.43;100.00
38022;BME280;23832;43.216;27.946;2023-01-05T06:02:16;101407.22;;;12.46;100.00
38022;BME280;23832;43.216;27.946;2023-01-05T06:04:20;101422.75;;;12.49;100.00
38022;BME280;23832;43.216;27.946;2023-01-05T06:06:23;101403.25;;;12.50;100.00
38022;BME280;23832;43.216;27.946;2023-01-05T06:08:29;101402.09;;;12.53;100.00
38022;BME280;23832;43.216;27.946;2023-01-05T06:10:31;101407.22;;;12.54;100.00
38022;BME280;23832;43.216;27.946;2023-01-05T06:12:32;101407.69;;;12.58;100.00
38022;BME280;23832;43.216;27.946;2023-01-05T06:14:34;101400.44;;;12.60;100.00
38022;BME280;23832;43.216;27.946;2023-01-05T06:16:36;101399.28;;;12.62;100.00
38022;BME280;23832;43.216;27.946;2023-01-05T06:18:38;101398.09;;;12.65;100.00
38022;BME280;23832;43.216;27.946;2023-01-05T06:20:41;101392.50;;;12.68;100.00
38022;BME280;23832;43.216;27.946;2023-01-05T06:22:43;101387.84;;;12.70;100.00
38022;BME280;23832;43.216;27.946;2023-01-05T06:24:44;101390.97;;;12.73;100.00
38022;BME280;23832;43.216;27.946;2023-01-05T06:26:46;101387.03;;;12.77;100.00
38022;BME280;23832;43.216;27.946;2023-01-05T06:28:48;101391.78;;;12.82;100.00
38022;BME280;23832;43.216;27.946;2023-01-05T06:30:49;101381.72;;;12.86;100.00
38022;BME280;23832;43.216;27.946;2023-01-05T06:32:51;101386.31;;;12.92;100.00
38022;BME280;23832;43.216;27.946;2023-01-05T06:35:07;101385.81;;;12.96;100.00
38022;BME280;23832;43.216;27.946;2023-01-05T06:37:14;101388.63;;;13.03;100.00
38022;BME280;23832;43.216;27.946;2023-01-05T06:39:19;101380.13;;;13.07;100.00
38022;BME280;23832;43.216;27.946;2023-01-05T06:41:21;101377.81;;;13.13;100.00
38022;BME280;23832;43.216;27.946;2023-01-05T06:43:26;101374.66;;;13.17;100.00
38022;BME280;23832;43.216;27.946;2023-01-05T06:45:29;101374.00;;;13.23;100.00
38022;BME280;23832;43.216;27.946;2023-01-05T06:47:31;101375.13;;;13.29;100.00
38022;BME280;23832;43.216;27.946;2023-01-05T06:49:32;101380.38;;;13.37;100.00
38022;BME280;23832;43.216;27.946;2023-01-05T06:51:34;101375.22;;;13.44;100.00
38022;BME280;23832;43.216;27.946;2023-01-05T06:53:37;101383.78;;;13.54;100.00
38022;BME280;23832;43.216;27.946;2023-01-05T06:55:39;101371.31;;;13.62;100.00
38022;BME280;23832;43.216;27.946;2023-01-05T06:57:43;101381.50;;;13.74;100.00
38022;BME280;23832;43.216;27.946;2023-01-05T06:59:44;101382.13;;;13.84;100.00
38022;BME280;23832;43.216;27.946;2023-01-05T07:01:46;101374.56;;;13.96;100.00
38022;BME280;23832;43.216;27.946;2023-01-05T07:03:49;101384.25;;;14.11;100.00
38022;BME280;23832;43.216;27.946;2023-01-05T07:05:51;101383.94;;;14.29;100.00
38022;BME280;23832;43.216;27.946;2023-01-05T07:07:52;101385.28;;;14.48;100.00
38022;BME280;23832;43.216;27.946;2023-01-05T07:09:55;101373.31;;;14.67;100.00
38022;BME280;23832;43.216;27.946;2023-01-05T07:11:57;101372.97;;;14.85;100.00
38022;BME280;23832;43.216;27.946;2023-01-05T07:13:59;101370.97;;;15.01;100.00
38022;BME280;23832;43.216;27.946;2023-01-05T07:16:00;101375.22;;;15.17;100.00
38022;BME280;23832;43.216;27.946;2023-01-05T07:18:02;101365.59;;;15.31;100.00
38022;BME280;23832;43.216;27.946;2023-01-05T07:20:05;101359.59;;;15.44;100.00
38022;BME280;23832;43.216;27.946;2023-01-05T07:22:07;101359.97;;;15.55;100.00
38022;BME280;23832;43.216;27.946;2023-01-05T07:24:09;101354.19;;;15.67;100.00
38022;BME280;23832;43.216;27.946;2023-01-05T07:26:12;101354.88;;;15.75;100.00
38022;BME280;23832;43.216;27.946;2023-01-05T07:28:14;101355.13;;;15.80;100.00
38022;BME280;23832;43.216;27.946;2023-01-05T07:30:15;101345.78;;;15.84;100.00
38022;BME280;23832;43.216;27.946;2023-01-05T07:32:17;101339.03;;;15.88;100.00
38022;BME280;23832;43.216;27.946;2023-01-05T07:34:19;101334.63;;;15.96;100.00
38022;BME280;23832;43.216;27.946;2023-01-05T07:36:22;101336.19;;;16.11;100.00
38022;BME280;23832;43.216;27.946;2023-01-05T07:38:24;101342.28;;;16.33;100.00
38022;BME280;23832;43.216;27.946;2023-01-05T07:40:26;101341.84;;;16.58;100.00
38022;BME280;23832;43.216;27.946;2023-01-05T07:42:29;101340.16;;;16.78;100.00
38022;BME280;23832;43.216;27.946;2023-01-05T07:44:31;101339.22;;;16.92;100.00
38022;BME280;23832;43.216;27.946;2023-01-05T07:46:33;101336.59;;;17.06;100.00
38022;BME280;23832;43.216;27.946;2023-01-05T07:48:34;101331.97;;;17.21;100.00
38022;BME280;23832;43.216;27.946;2023-01-05T07:50:36;101331.19;;;17.40;100.00
38022;BME280;23832;43.216;27.946;2023-01-05T07:52:38;101331.47;;;17.65;100.00
38022;BME280;23832;43.216;27.946;2023-01-05T07:54:39;101329.09;;;17.90;100.00
38022;BME280;23832;43.216;27.946;2023-01-05T07:56:41;101329.69;;;18.19;100.00
38022;BME280;23832;43.216;27.946;2023-01-05T07:58:44;101322.47;;;18.52;100.00
38022;BME280;23832;43.216;27.946;2023-01-05T08:00:46;101322.81;;;18.89;99.53
38022;BME280;23832;43.216;27.946;2023-01-05T08:02:48;101316.91;;;19.25;95.85
38022;BME280;23832;43.216;27.946;2023-01-05T08:04:49;101309.53;;;19.59;91.09
38022;BME280;23832;43.216;27.946;2023-01-05T08:06:52;101307.03;;;19.95;88.06
38022;BME280;23832;43.216;27.946;2023-01-05T08:08:54;101307.31;;;20.30;84.80
38022;BME280;23832;43.216;27.946;2023-01-05T08:10:56;101300.00;;;20.62;80.44
38022;BME280;23832;43.216;27.946;2023-01-05T08:13:00;101300.53;;;20.89;74.76
38022;BME280;23832;43.216;27.946;2023-01-05T08:15:20;101294.25;;;21.14;70.21
38022;BME280;23832;43.216;27.946;2023-01-05T08:17:23;101294.22;;;21.32;66.96
38022;BME280;23832;43.216;27.946;2023-01-05T08:19:25;101294.41;;;21.49;65.66
38022;BME280;23832;43.216;27.946;2023-01-05T08:21:26;101288.16;;;21.67;64.95
38022;BME280;23832;43.216;27.946;2023-01-05T08:23:28;101280.00;;;21.85;63.97
38022;BME280;23832;43.216;27.946;2023-01-05T08:25:30;101274.66;;;21.97;61.58
38022;BME280;23832;43.216;27.946;2023-01-05T08:27:32;101273.03;;;22.07;59.17
38022;BME280;23832;43.216;27.946;2023-01-05T08:29:35;101268.13;;;22.16;58.21
38022;BME280;23832;43.216;27.946;2023-01-05T08:31:38;101260.53;;;22.25;57.33
38022;BME280;23832;43.216;27.946;2023-01-05T08:33:39;101255.38;;;22.35;56.38
38022;BME280;23832;43.216;27.946;2023-01-05T08:35:41;101244.84;;;22.45;55.49
38022;BME280;23832;43.216;27.946;2023-01-05T08:37:44;101252.44;;;22.60;55.15
38022;BME280;23832;43.216;27.946;2023-01-05T08:39:46;101242.25;;;22.74;54.18
38022;BME280;23832;43.216;27.946;2023-01-05T08:41:48;101236.59;;;22.87;53.72
38022;BME280;23832;43.216;27.946;2023-01-05T08:43:50;101232.09;;;23.04;53.40
38022;BME280;23832;43.216;27.946;2023-01-05T08:45:51;101229.91;;;23.18;51.96
38022;BME280;23832;43.216;27.946;2023-01-05T08:47:54;101216.97;;;23.32;51.49
38022;BME280;23832;43.216;27.946;2023-01-05T08:49:56;101219.94;;;23.47;51.04
38022;BME280;23832;43.216;27.946;2023-01-05T08:51:58;101219.72;;;23.65;51.12
38022;BME280;23832;43.216;27.946;2023-01-05T08:53:59;101218.66;;;23.83;49.99
38022;BME280;23832;43.216;27.946;2023-01-05T08:56:01;101207.25;;;23.98;49.21
38022;BME280;23832;43.216;27.946;2023-01-05T08:58:04;101209.09;;;24.14;48.35
38022;BME280;23832;43.216;27.946;2023-01-05T09:00:06;101199.34;;;24.30;48.18
38022;BME280;23832;43.216;27.946;2023-01-05T09:02:09;101182.09;;;24.48;47.79
38022;BME280;23832;43.216;27.946;2023-01-05T09:04:12;101182.31;;;24.68;48.01
38022;BME280;23832;43.216;27.946;2023-01-05T09:06:14;101176.63;;;24.91;47.63
38022;BME280;23832;43.216;27.946;2023-01-05T09:08:15;101177.38;;;25.14;46.72
38022;BME280;23832;43.216;27.946;2023-01-05T09:10:17;101175.38;;;25.31;45.26
38022;BME280;23832;43.216;27.946;2023-01-05T09:12:19;101168.00;;;25.54;45.80
38022;BME280;23832;43.216;27.946;2023-01-05T09:14:21;101166.81;;;25.77;45.89
38022;BME280;23832;43.216;27.946;2023-01-05T09:16:23;101154.78;;;25.99;44.56
38022;BME280;23832;43.216;27.946;2023-01-05T09:18:25;101155.97;;;26.19;43.53
38022;BME280;23832;43.216;27.946;2023-01-05T09:20:28;101155.44;;;26.32;42.78
38022;BME280;23832;43.216;27.946;2023-01-05T09:22:29;101150.69;;;26.44;41.79
38022;BME280;23832;43.216;27.946;2023-01-05T09:24:31;101152.31;;;26.55;41.88
38022;BME280;23832;43.216;27.946;2023-01-05T09:26:33;101138.28;;;26.64;40.89
38022;BME280;23832;43.216;27.946;2023-01-05T09:28:34;101135.06;;;26.72;40.69
38022;BME280;23832;43.216;27.946;2023-01-05T09:30:38;101124.25;;;26.87;40.80
38022;BME280;23832;43.216;27.946;2023-01-05T09:32:40;101115.06;;;27.03;41.01
38022;BME280;23832;43.216;27.946;2023-01-05T09:34:42;101113.44;;;27.23;40.88
38022;BME280;23832;43.216;27.946;2023-01-05T09:36:45;101118.84;;;27.43;40.37
38022;BME280;23832;43.216;27.946;2023-01-05T09:38:47;101101.72;;;27.63;39.52
38022;BME280;23832;43.216;27.946;2023-01-05T09:40:49;101102.50;;;27.84;39.74
38022;BME280;23832;43.216;27.946;2023-01-05T09:42:51;101103.50;;;28.08;40.05
38022;BME280;23832;43.216;27.946;2023-01-05T09:44:55;101100.69;;;28.34;39.17
38022;BME280;23832;43.216;27.946;2023-01-05T09:47:01;101079.44;;;28.46;36.54
38022;BME280;23832;43.216;27.946;2023-01-05T09:49:03;101077.22;;;28.53;36.99
38022;BME280;23832;43.216;27.946;2023-01-05T09:51:07;101063.88;;;28.62;36.27
38022;BME280;23832;43.216;27.946;2023-01-05T09:53:10;101068.19;;;28.68;35.74
38022;BME280;23832;43.216;27.946;2023-01-05T09:55:14;101057.25;;;28.78;36.49
38022;BME280;23832;43.216;27.946;2023-01-05T09:57:16;101044.03;;;29.00;36.30
38022;BME280;23832;43.216;27.946;2023-01-05T09:59:21;101040.03;;;29.22;35.73
38022;BME280;23832;43.216;27.946;2023-01-05T10:01:24;101047.97;;;29.42;35.48
38022;BME280;23832;43.216;27.946;2023-01-05T10:03:26;101039.88;;;29.61;35.46
38022;BME280;23832;43.216;27.946;2023-01-05T10:05:28;101030.00;;;29.70;34.78
38022;BME280;23832;43.216;27.946;2023-01-05T10:07:37;101024.28;;;29.90;34.78
38022;BME280;23832;43.216;27.946;2023-01-05T10:09:42;101020.72;;;30.14;33.70
38022;BME280;23832;43.216;27.946;2023-01-05T10:11:46;101010.34;;;30.35;33.51
38022;BME280;23832;43.216;27.946;2023-01-05T10:14:08;101002.72;;;30.69;34.00
38022;BME280;23832;43.216;27.946;2023-01-05T10:16:13;100995.34;;;31.02;34.09
38022;BME280;23832;43.216;27.946;2023-01-05T10:18:17;100988.09;;;31.39;33.66
38022;BME280;23832;43.216;27.946;2023-01-05T10:20:20;100982.69;;;31.75;33.13
38022;BME280;23832;43.216;27.946;2023-01-05T10:22:30;100980.63;;;32.08;32.65
38022;BME280;23832;43.216;27.946;2023-01-05T10:24:40;100975.78;;;32.28;31.65
38022;BME280;23832;43.216;27.946;2023-01-05T10:26:50;100985.59;;;32.51;31.58
38022;BME280;23832;43.216;27.946;2023-01-05T10:28:57;100965.66;;;32.73;31.22
38022;BME280;23832;43.216;27.946;2023-01-05T10:31:00;100947.63;;;32.94;30.28
38022;BME280;23832;43.216;27.946;2023-01-05T10:33:07;100951.22;;;33.12;29.91
38022;BME280;23832;43.216;27.946;2023-01-05T10:35:15;100943.69;;;33.18;29.78
38022;BME280;23832;43.216;27.946;2023-01-05T10:39:59;100943.13;;;33.47;29.31
38022;BME280;23832;43.216;27.946;2023-01-05T10:42:06;100937.69;;;33.55;29.38